MET'MAP v2.0
soon released !

Expected late october,
this new version will be
more efficient, smarter,
and hosted on a brand new
server x3 powerfull...
...and still free !


Not compatible ?
Try the mobile version !

LOG IN : | Subscribe | Disclaimer | Who is Orbifly ? |
ICAO code :

TAF - EKSP Srydstrup Vojens - 28 Feb 2020 01:40 UTC - Data Source NOAA   


- Airport Elevation : 141 ft
- IATA code : SKS
- No reported NOTAMs.


EKSP - Srydstrup Vojens

Latest METAR recorded : 2015/08/11 07:50 EKSP 110750Z 16006KT 9999 FEW009 BKN200 18/15 Q1017 NOSIG
TAF TAF EKSP
Valid from the 28 at 00:00 until the 29 at 00:00 UTC


272304Z 2800/2824 21010KT 9999 BKN020
TEMPO 2800/2805 2500 SHRASN BR BKN004 BKN012CB
BECMG 2802/2804 27012KT
TEMPO 2809/2816 27015G25KT
BECMG 2816/2818 20008KT
BECMG 2822/2824 15012G22KT 5000 RA

Source NOAA


MET'MAP, your aeronautical weather chart ! - Copyright ORBIFLY December 2007

Programming & Development : Alexandra Zaïnal
Co-Developer : Marc-Olivier Méhu
Technical & hardware support : Manuel Goepfert
Concept & Financing : Baudouin d'Aumeries